sensor_id;sensor_type;location;lat;lon;timestamp;P1;durP1;ratioP1;P2;durP2;ratioP2
43182;SDS011;28802;38.578;-0.066;2022-09-13T00:00:54;10.20;;;2.50;;
43182;SDS011;28802;38.578;-0.066;2022-09-13T00:03:20;11.37;;;2.60;;
43182;SDS011;28802;38.578;-0.066;2022-09-13T00:05:46;18.10;;;3.50;;
43182;SDS011;28802;38.578;-0.066;2022-09-13T00:08:12;9.10;;;2.40;;
43182;SDS011;28802;38.578;-0.066;2022-09-13T00:10:39;12.53;;;2.90;;
43182;SDS011;28802;38.578;-0.066;2022-09-13T00:13:06;15.67;;;2.90;;
43182;SDS011;28802;38.578;-0.066;2022-09-13T00:15:34;9.87;;;2.73;;
43182;SDS011;28802;38.578;-0.066;2022-09-13T00:18:00;18.30;;;3.70;;
43182;SDS011;28802;38.578;-0.066;2022-09-13T00:20:26;12.83;;;3.10;;
43182;SDS011;28802;38.578;-0.066;2022-09-13T00:22:52;26.57;;;3.30;;
43182;SDS011;28802;38.578;-0.066;2022-09-13T00:25:18;12.90;;;3.10;;
43182;SDS011;28802;38.578;-0.066;2022-09-13T00:27:44;15.70;;;2.73;;
43182;SDS011;28802;38.578;-0.066;2022-09-13T00:30:11;10.40;;;3.20;;
43182;SDS011;28802;38.578;-0.066;2022-09-13T00:32:37;13.90;;;2.90;;
43182;SDS011;28802;38.578;-0.066;2022-09-13T00:35:04;15.23;;;3.03;;
43182;SDS011;28802;38.578;-0.066;2022-09-13T00:37:31;22.90;;;3.40;;
43182;SDS011;28802;38.578;-0.066;2022-09-13T00:40:01;17.43;;;4.40;;
43182;SDS011;28802;38.578;-0.066;2022-09-13T00:42:28;19.43;;;3.27;;
43182;SDS011;28802;38.578;-0.066;2022-09-13T00:45:00;12.57;;;3.07;;
43182;SDS011;28802;38.578;-0.066;2022-09-13T00:50:07;7.33;;;2.47;;
43182;SDS011;28802;38.578;-0.066;2022-09-13T00:52:39;9.47;;;2.80;;
43182;SDS011;28802;38.578;-0.066;2022-09-13T00:55:15;12.23;;;3.07;;
43182;SDS011;28802;38.578;-0.066;2022-09-13T00:57:49;10.03;;;3.00;;
43182;SDS011;28802;38.578;-0.066;2022-09-13T01:00:17;15.33;;;2.90;;
43182;SDS011;28802;38.578;-0.066;2022-09-13T01:02:54;11.10;;;3.00;;
43182;SDS011;28802;38.578;-0.066;2022-09-13T01:05:26;12.13;;;2.10;;
43182;SDS011;28802;38.578;-0.066;2022-09-13T01:07:56;11.47;;;2.67;;
43182;SDS011;28802;38.578;-0.066;2022-09-13T01:10:24;5.70;;;1.60;;
43182;SDS011;28802;38.578;-0.066;2022-09-13T01:12:56;8.23;;;1.90;;
43182;SDS011;28802;38.578;-0.066;2022-09-13T01:15:28;9.50;;;2.87;;
43182;SDS011;28802;38.578;-0.066;2022-09-13T01:17:54;5.47;;;1.87;;
43182;SDS011;28802;38.578;-0.066;2022-09-13T01:20:24;18.03;;;3.67;;
43182;SDS011;28802;38.578;-0.066;2022-09-13T01:28:40;5.90;;;2.17;;
43182;SDS011;28802;38.578;-0.066;2022-09-13T01:39:03;23.60;;;3.10;;
43182;SDS011;28802;38.578;-0.066;2022-09-13T01:52:49;8.23;;;1.70;;
43182;SDS011;28802;38.578;-0.066;2022-09-13T02:00:35;10.20;;;2.67;;
43182;SDS011;28802;38.578;-0.066;2022-09-13T02:03:22;6.60;;;1.70;;
43182;SDS011;28802;38.578;-0.066;2022-09-13T02:06:12;7.83;;;1.80;;
43182;SDS011;28802;38.578;-0.066;2022-09-13T02:08:47;7.20;;;1.80;;
43182;SDS011;28802;38.578;-0.066;2022-09-13T02:11:17;4.70;;;1.40;;
43182;SDS011;28802;38.578;-0.066;2022-09-13T02:14:29;5.80;;;1.80;;
43182;SDS011;28802;38.578;-0.066;2022-09-13T02:16:53;6.03;;;1.43;;
43182;SDS011;28802;38.578;-0.066;2022-09-13T02:19:28;8.40;;;2.20;;
43182;SDS011;28802;38.578;-0.066;2022-09-13T02:22:06;7.40;;;2.60;;
43182;SDS011;28802;38.578;-0.066;2022-09-13T02:24:40;11.27;;;1.83;;
43182;SDS011;28802;38.578;-0.066;2022-09-13T02:27:12;8.27;;;2.33;;
43182;SDS011;28802;38.578;-0.066;2022-09-13T02:29:44;9.93;;;2.80;;
43182;SDS011;28802;38.578;-0.066;2022-09-13T02:35:05;14.23;;;2.90;;
43182;SDS011;28802;38.578;-0.066;2022-09-13T02:37:39;9.30;;;2.80;;
43182;SDS011;28802;38.578;-0.066;2022-09-13T02:40:10;9.10;;;2.70;;
43182;SDS011;28802;38.578;-0.066;2022-09-13T02:42:54;7.50;;;2.03;;
43182;SDS011;28802;38.578;-0.066;2022-09-13T02:45:30;7.37;;;2.23;;
43182;SDS011;28802;38.578;-0.066;2022-09-13T02:48:02;12.77;;;3.13;;
43182;SDS011;28802;38.578;-0.066;2022-09-13T02:53:25;13.43;;;2.80;;
43182;SDS011;28802;38.578;-0.066;2022-09-13T03:04:26;11.63;;;2.03;;
43182;SDS011;28802;38.578;-0.066;2022-09-13T03:06:52;6.33;;;1.90;;
43182;SDS011;28802;38.578;-0.066;2022-09-13T03:09:18;8.90;;;2.13;;
43182;SDS011;28802;38.578;-0.066;2022-09-13T03:15:00;12.90;;;2.80;;
43182;SDS011;28802;38.578;-0.066;2022-09-13T03:17:50;7.27;;;2.27;;
43182;SDS011;28802;38.578;-0.066;2022-09-13T03:33:53;14.10;;;2.20;;
43182;SDS011;28802;38.578;-0.066;2022-09-13T03:36:24;9.60;;;2.37;;
43182;SDS011;28802;38.578;-0.066;2022-09-13T03:41:41;9.57;;;2.13;;
43182;SDS011;28802;38.578;-0.066;2022-09-13T03:44:13;12.73;;;2.97;;
43182;SDS011;28802;38.578;-0.066;2022-09-13T03:46:44;9.80;;;2.43;;
43182;SDS011;28802;38.578;-0.066;2022-09-13T03:49:13;9.43;;;1.90;;
43182;SDS011;28802;38.578;-0.066;2022-09-13T03:51:42;13.23;;;2.80;;
43182;SDS011;28802;38.578;-0.066;2022-09-13T03:54:16;20.50;;;3.90;;
43182;SDS011;28802;38.578;-0.066;2022-09-13T03:57:04;11.73;;;2.67;;
43182;SDS011;28802;38.578;-0.066;2022-09-13T03:59:42;16.60;;;3.70;;
43182;SDS011;28802;38.578;-0.066;2022-09-13T04:02:14;12.10;;;3.03;;
43182;SDS011;28802;38.578;-0.066;2022-09-13T04:04:41;12.00;;;2.90;;
43182;SDS011;28802;38.578;-0.066;2022-09-13T04:07:09;8.50;;;2.80;;
43182;SDS011;28802;38.578;-0.066;2022-09-13T04:09:36;7.60;;;2.60;;
43182;SDS011;28802;38.578;-0.066;2022-09-13T04:12:02;9.03;;;2.70;;
43182;SDS011;28802;38.578;-0.066;2022-09-13T04:14:28;10.67;;;2.57;;
43182;SDS011;28802;38.578;-0.066;2022-09-13T04:16:55;7.73;;;2.40;;
43182;SDS011;28802;38.578;-0.066;2022-09-13T04:19:21;8.10;;;2.20;;
43182;SDS011;28802;38.578;-0.066;2022-09-13T04:21:49;14.17;;;2.80;;
43182;SDS011;28802;38.578;-0.066;2022-09-13T04:24:16;9.00;;;2.43;;
43182;SDS011;28802;38.578;-0.066;2022-09-13T04:26:43;9.43;;;2.13;;
43182;SDS011;28802;38.578;-0.066;2022-09-13T04:29:13;7.87;;;2.67;;
43182;SDS011;28802;38.578;-0.066;2022-09-13T04:31:39;6.47;;;2.60;;
43182;SDS011;28802;38.578;-0.066;2022-09-13T04:34:05;20.20;;;2.93;;
43182;SDS011;28802;38.578;-0.066;2022-09-13T04:36:32;10.70;;;3.40;;
43182;SDS011;28802;38.578;-0.066;2022-09-13T04:38:58;11.37;;;2.67;;
43182;SDS011;28802;38.578;-0.066;2022-09-13T04:41:24;16.70;;;2.50;;
43182;SDS011;28802;38.578;-0.066;2022-09-13T04:43:50;9.20;;;1.63;;
43182;SDS011;28802;38.578;-0.066;2022-09-13T04:46:16;9.27;;;2.03;;
43182;SDS011;28802;38.578;-0.066;2022-09-13T04:48:46;9.17;;;1.87;;
43182;SDS011;28802;38.578;-0.066;2022-09-13T04:51:16;8.23;;;1.80;;
43182;SDS011;28802;38.578;-0.066;2022-09-13T04:53:45;12.87;;;2.20;;
43182;SDS011;28802;38.578;-0.066;2022-09-13T04:56:11;13.13;;;2.73;;
43182;SDS011;28802;38.578;-0.066;2022-09-13T04:58:39;16.57;;;2.17;;
43182;SDS011;28802;38.578;-0.066;2022-09-13T05:01:07;7.27;;;1.90;;
43182;SDS011;28802;38.578;-0.066;2022-09-13T05:03:34;6.33;;;1.60;;
43182;SDS011;28802;38.578;-0.066;2022-09-13T05:06:07;7.83;;;1.10;;
43182;SDS011;28802;38.578;-0.066;2022-09-13T05:08:35;11.90;;;1.97;;
43182;SDS011;28802;38.578;-0.066;2022-09-13T05:11:02;12.20;;;2.17;;
43182;SDS011;28802;38.578;-0.066;2022-09-13T05:13:28;8.87;;;1.80;;
43182;SDS011;28802;38.578;-0.066;2022-09-13T05:15:58;7.87;;;1.50;;
43182;SDS011;28802;38.578;-0.066;2022-09-13T05:18:29;7.47;;;1.90;;
43182;SDS011;28802;38.578;-0.066;2022-09-13T05:20:57;15.00;;;2.23;;
43182;SDS011;28802;38.578;-0.066;2022-09-13T05:23:25;6.07;;;1.87;;
43182;SDS011;28802;38.578;-0.066;2022-09-13T05:26:02;9.20;;;1.90;;
43182;SDS011;28802;38.578;-0.066;2022-09-13T05:28:30;12.53;;;2.27;;
43182;SDS011;28802;38.578;-0.066;2022-09-13T05:31:02;20.07;;;2.23;;
43182;SDS011;28802;38.578;-0.066;2022-09-13T05:33:34;7.80;;;1.90;;
43182;SDS011;28802;38.578;-0.066;2022-09-13T05:36:01;5.43;;;1.37;;
43182;SDS011;28802;38.578;-0.066;2022-09-13T05:38:27;9.57;;;1.60;;
43182;SDS011;28802;38.578;-0.066;2022-09-13T05:40:56;13.63;;;1.87;;
43182;SDS011;28802;38.578;-0.066;2022-09-13T05:43:24;16.63;;;2.37;;
43182;SDS011;28802;38.578;-0.066;2022-09-13T05:45:50;9.33;;;2.10;;
43182;SDS011;28802;38.578;-0.066;2022-09-13T05:48:24;4.00;;;1.70;;
43182;SDS011;28802;38.578;-0.066;2022-09-13T05:50:49;10.10;;;2.20;;
43182;SDS011;28802;38.578;-0.066;2022-09-13T05:53:15;10.33;;;2.97;;
43182;SDS011;28802;38.578;-0.066;2022-09-13T05:55:41;8.73;;;2.10;;
43182;SDS011;28802;38.578;-0.066;2022-09-13T05:58:07;12.60;;;2.60;;
43182;SDS011;28802;38.578;-0.066;2022-09-13T06:00:33;19.87;;;2.10;;
43182;SDS011;28802;38.578;-0.066;2022-09-13T06:02:59;15.63;;;3.23;;
43182;SDS011;28802;38.578;-0.066;2022-09-13T06:05:24;6.80;;;1.67;;
43182;SDS011;28802;38.578;-0.066;2022-09-13T06:07:50;7.43;;;2.10;;
43182;SDS011;28802;38.578;-0.066;2022-09-13T06:10:16;8.80;;;1.70;;
43182;SDS011;28802;38.578;-0.066;2022-09-13T06:12:42;16.00;;;2.53;;
43182;SDS011;28802;38.578;-0.066;2022-09-13T06:15:11;17.10;;;2.70;;
43182;SDS011;28802;38.578;-0.066;2022-09-13T06:17:37;10.53;;;2.20;;
43182;SDS011;28802;38.578;-0.066;2022-09-13T06:20:04;12.80;;;2.10;;
43182;SDS011;28802;38.578;-0.066;2022-09-13T06:22:30;16.77;;;3.07;;
43182;SDS011;28802;38.578;-0.066;2022-09-13T06:25:00;19.30;;;7.87;;
43182;SDS011;28802;38.578;-0.066;2022-09-13T06:27:27;17.67;;;7.50;;
43182;SDS011;28802;38.578;-0.066;2022-09-13T06:29:54;16.57;;;4.17;;
43182;SDS011;28802;38.578;-0.066;2022-09-13T06:32:20;14.07;;;4.03;;
43182;SDS011;28802;38.578;-0.066;2022-09-13T06:34:46;13.43;;;3.90;;
43182;SDS011;28802;38.578;-0.066;2022-09-13T06:37:12;14.07;;;4.87;;
43182;SDS011;28802;38.578;-0.066;2022-09-13T06:39:38;10.90;;;4.13;;
43182;SDS011;28802;38.578;-0.066;2022-09-13T06:42:04;8.73;;;3.43;;
43182;SDS011;28802;38.578;-0.066;2022-09-13T06:44:37;8.63;;;3.10;;
43182;SDS011;28802;38.578;-0.066;2022-09-13T06:47:03;12.57;;;4.70;;
43182;SDS011;28802;38.578;-0.066;2022-09-13T06:49:29;9.47;;;2.10;;
43182;SDS011;28802;38.578;-0.066;2022-09-13T06:51:56;9.00;;;2.20;;
43182;SDS011;28802;38.578;-0.066;2022-09-13T06:54:22;15.13;;;2.97;;
43182;SDS011;28802;38.578;-0.066;2022-09-13T06:56:48;11.00;;;3.10;;
43182;SDS011;28802;38.578;-0.066;2022-09-13T06:59:13;8.67;;;2.10;;
43182;SDS011;28802;38.578;-0.066;2022-09-13T07:01:40;15.33;;;3.83;;
43182;SDS011;28802;38.578;-0.066;2022-09-13T07:04:11;11.80;;;2.37;;
43182;SDS011;28802;38.578;-0.066;2022-09-13T07:06:42;8.33;;;2.60;;
43182;SDS011;28802;38.578;-0.066;2022-09-13T07:09:11;6.73;;;1.73;;
43182;SDS011;28802;38.578;-0.066;2022-09-13T07:11:42;7.07;;;1.60;;
43182;SDS011;28802;38.578;-0.066;2022-09-13T07:14:15;10.33;;;2.03;;
43182;SDS011;28802;38.578;-0.066;2022-09-13T07:16:43;11.67;;;2.30;;
43182;SDS011;28802;38.578;-0.066;2022-09-13T07:19:20;16.17;;;2.70;;
43182;SDS011;28802;38.578;-0.066;2022-09-13T07:21:48;9.27;;;2.50;;
43182;SDS011;28802;38.578;-0.066;2022-09-13T07:24:18;12.33;;;2.57;;
43182;SDS011;28802;38.578;-0.066;2022-09-13T07:26:45;15.33;;;3.30;;
43182;SDS011;28802;38.578;-0.066;2022-09-13T07:29:12;12.33;;;2.33;;
43182;SDS011;28802;38.578;-0.066;2022-09-13T07:31:42;13.50;;;2.90;;
43182;SDS011;28802;38.578;-0.066;2022-09-13T07:34:12;11.80;;;2.80;;
43182;SDS011;28802;38.578;-0.066;2022-09-13T07:36:43;4.80;;;2.07;;
43182;SDS011;28802;38.578;-0.066;2022-09-13T07:39:11;17.33;;;3.43;;
43182;SDS011;28802;38.578;-0.066;2022-09-13T07:41:37;21.87;;;3.27;;
43182;SDS011;28802;38.578;-0.066;2022-09-13T07:44:03;23.23;;;8.17;;
43182;SDS011;28802;38.578;-0.066;2022-09-13T07:46:32;23.00;;;6.90;;
43182;SDS011;28802;38.578;-0.066;2022-09-13T07:49:08;28.80;;;8.13;;
43182;SDS011;28802;38.578;-0.066;2022-09-13T07:51:36;21.10;;;6.70;;
43182;SDS011;28802;38.578;-0.066;2022-09-13T07:54:05;18.97;;;6.10;;
43182;SDS011;28802;38.578;-0.066;2022-09-13T07:56:35;23.67;;;6.73;;
43182;SDS011;28802;38.578;-0.066;2022-09-13T07:59:03;26.37;;;6.97;;
43182;SDS011;28802;38.578;-0.066;2022-09-13T08:01:35;21.50;;;4.87;;
43182;SDS011;28802;38.578;-0.066;2022-09-13T08:04:25;24.53;;;5.37;;
43182;SDS011;28802;38.578;-0.066;2022-09-13T08:06:51;14.87;;;4.30;;
43182;SDS011;28802;38.578;-0.066;2022-09-13T08:09:17;22.43;;;5.10;;
43182;SDS011;28802;38.578;-0.066;2022-09-13T08:11:43;20.83;;;3.83;;
43182;SDS011;28802;38.578;-0.066;2022-09-13T08:14:13;12.53;;;3.13;;
43182;SDS011;28802;38.578;-0.066;2022-09-13T08:16:40;25.33;;;5.33;;
43182;SDS011;28802;38.578;-0.066;2022-09-13T08:19:06;11.20;;;3.40;;
43182;SDS011;28802;38.578;-0.066;2022-09-13T08:21:38;16.60;;;3.87;;
43182;SDS011;28802;38.578;-0.066;2022-09-13T08:24:06;25.07;;;3.07;;
43182;SDS011;28802;38.578;-0.066;2022-09-13T08:26:33;24.60;;;3.57;;
43182;SDS011;28802;38.578;-0.066;2022-09-13T08:29:01;11.70;;;3.13;;
43182;SDS011;28802;38.578;-0.066;2022-09-13T08:31:28;8.37;;;1.87;;
43182;SDS011;28802;38.578;-0.066;2022-09-13T08:33:55;12.17;;;2.83;;
43182;SDS011;28802;38.578;-0.066;2022-09-13T08:36:22;14.00;;;2.50;;
43182;SDS011;28802;38.578;-0.066;2022-09-13T08:38:52;9.93;;;2.13;;
43182;SDS011;28802;38.578;-0.066;2022-09-13T08:46:50;15.40;;;2.07;;
43182;SDS011;28802;38.578;-0.066;2022-09-13T08:49:40;6.87;;;1.30;;
43182;SDS011;28802;38.578;-0.066;2022-09-13T09:01:00;12.80;;;3.50;;
43182;SDS011;28802;38.578;-0.066;2022-09-13T09:06:23;28.80;;;4.53;;
43182;SDS011;28802;38.578;-0.066;2022-09-13T09:08:53;15.50;;;4.13;;
43182;SDS011;28802;38.578;-0.066;2022-09-13T09:11:36;19.83;;;3.50;;
43182;SDS011;28802;38.578;-0.066;2022-09-13T09:14:29;12.47;;;2.63;;
43182;SDS011;28802;38.578;-0.066;2022-09-13T09:17:01;17.13;;;3.00;;
43182;SDS011;28802;38.578;-0.066;2022-09-13T09:19:49;14.57;;;2.33;;
43182;SDS011;28802;38.578;-0.066;2022-09-13T09:22:20;10.27;;;2.97;;
43182;SDS011;28802;38.578;-0.066;2022-09-13T09:24:49;7.60;;;2.20;;
43182;SDS011;28802;38.578;-0.066;2022-09-13T09:27:20;17.70;;;2.33;;
43182;SDS011;28802;38.578;-0.066;2022-09-13T09:29:48;9.90;;;2.50;;
43182;SDS011;28802;38.578;-0.066;2022-09-13T09:35:08;7.77;;;2.13;;
43182;SDS011;28802;38.578;-0.066;2022-09-13T09:37:38;20.10;;;3.00;;
43182;SDS011;28802;38.578;-0.066;2022-09-13T09:40:08;8.77;;;2.30;;
43182;SDS011;28802;38.578;-0.066;2022-09-13T09:42:42;12.10;;;2.50;;
43182;SDS011;28802;38.578;-0.066;2022-09-13T09:47:44;18.37;;;2.33;;
43182;SDS011;28802;38.578;-0.066;2022-09-13T09:50:21;13.00;;;2.53;;
43182;SDS011;28802;38.578;-0.066;2022-09-13T09:55:58;6.07;;;2.40;;
43182;SDS011;28802;38.578;-0.066;2022-09-13T09:58:49;9.90;;;3.47;;
43182;SDS011;28802;38.578;-0.066;2022-09-13T10:01:15;11.50;;;1.80;;
43182;SDS011;28802;38.578;-0.066;2022-09-13T10:06:34;17.10;;;4.10;;
43182;SDS011;28802;38.578;-0.066;2022-09-13T10:09:14;10.63;;;3.70;;
43182;SDS011;28802;38.578;-0.066;2022-09-13T10:11:54;13.60;;;3.10;;
43182;SDS011;28802;38.578;-0.066;2022-09-13T10:19:59;8.63;;;3.00;;
43182;SDS011;28802;38.578;-0.066;2022-09-13T10:22:37;10.83;;;2.13;;
43182;SDS011;28802;38.578;-0.066;2022-09-13T10:25:22;15.60;;;4.00;;
43182;SDS011;28802;38.578;-0.066;2022-09-13T10:27:52;9.10;;;2.30;;
43182;SDS011;28802;38.578;-0.066;2022-09-13T10:31:26;12.67;;;3.13;;
43182;SDS011;28802;38.578;-0.066;2022-09-13T10:35:51;16.13;;;7.03;;
43182;SDS011;28802;38.578;-0.066;2022-09-13T10:38:23;7.13;;;2.40;;
43182;SDS011;28802;38.578;-0.066;2022-09-13T10:40:54;9.43;;;2.40;;
43182;SDS011;28802;38.578;-0.066;2022-09-13T10:43:20;9.83;;;2.30;;
43182;SDS011;28802;38.578;-0.066;2022-09-13T10:45:48;13.27;;;2.27;;
43182;SDS011;28802;38.578;-0.066;2022-09-13T10:48:16;11.30;;;2.70;;
43182;SDS011;28802;38.578;-0.066;2022-09-13T10:53:29;9.13;;;2.87;;
43182;SDS011;28802;38.578;-0.066;2022-09-13T10:55:58;14.83;;;4.33;;
43182;SDS011;28802;38.578;-0.066;2022-09-13T10:58:26;15.43;;;3.03;;
43182;SDS011;28802;38.578;-0.066;2022-09-13T11:01:00;10.80;;;2.37;;
43182;SDS011;28802;38.578;-0.066;2022-09-13T11:06:15;7.77;;;2.27;;
43182;SDS011;28802;38.578;-0.066;2022-09-13T11:14:30;10.30;;;3.57;;
43182;SDS011;28802;38.578;-0.066;2022-09-13T11:17:37;13.50;;;4.17;;
43182;SDS011;28802;38.578;-0.066;2022-09-13T11:26:09;14.67;;;2.60;;
43182;SDS011;28802;38.578;-0.066;2022-09-13T11:42:04;13.37;;;3.60;;
43182;SDS011;28802;38.578;-0.066;2022-09-13T11:55:27;9.63;;;3.33;;
43182;SDS011;28802;38.578;-0.066;2022-09-13T11:58:17;9.27;;;2.83;;
43182;SDS011;28802;38.578;-0.066;2022-09-13T12:01:06;6.07;;;2.30;;
43182;SDS011;28802;38.578;-0.066;2022-09-13T12:06:18;14.50;;;4.27;;
43182;SDS011;28802;38.578;-0.066;2022-09-13T12:08:46;7.57;;;2.60;;
43182;SDS011;28802;38.578;-0.066;2022-09-13T12:11:32;11.57;;;3.17;;
43182;SDS011;28802;38.578;-0.066;2022-09-13T12:14:06;14.90;;;3.43;;
43182;SDS011;28802;38.578;-0.066;2022-09-13T12:19:15;15.47;;;3.10;;
43182;SDS011;28802;38.578;-0.066;2022-09-13T12:22:02;13.97;;;4.70;;
43182;SDS011;28802;38.578;-0.066;2022-09-13T12:24:36;14.40;;;4.67;;
43182;SDS011;28802;38.578;-0.066;2022-09-13T12:27:12;11.40;;;2.83;;
43182;SDS011;28802;38.578;-0.066;2022-09-13T12:29:50;15.57;;;2.93;;
43182;SDS011;28802;38.578;-0.066;2022-09-13T12:32:21;16.90;;;3.57;;
43182;SDS011;28802;38.578;-0.066;2022-09-13T12:34:49;12.90;;;3.53;;
43182;SDS011;28802;38.578;-0.066;2022-09-13T12:48:36;14.37;;;3.47;;
43182;SDS011;28802;38.578;-0.066;2022-09-13T12:54:04;11.53;;;2.90;;
43182;SDS011;28802;38.578;-0.066;2022-09-13T13:01:50;11.80;;;3.07;;
43182;SDS011;28802;38.578;-0.066;2022-09-13T13:06:52;12.93;;;2.87;;
43182;SDS011;28802;38.578;-0.066;2022-09-13T13:09:44;9.77;;;2.90;;
43182;SDS011;28802;38.578;-0.066;2022-09-13T13:12:32;13.70;;;2.93;;
43182;SDS011;28802;38.578;-0.066;2022-09-13T13:15:02;14.70;;;3.10;;
43182;SDS011;28802;38.578;-0.066;2022-09-13T13:17:53;16.00;;;3.07;;
43182;SDS011;28802;38.578;-0.066;2022-09-13T13:39:12;14.97;;;2.57;;
43182;SDS011;28802;38.578;-0.066;2022-09-13T13:57:04;15.60;;;2.90;;
43182;SDS011;28802;38.578;-0.066;2022-09-13T13:59:45;15.30;;;2.67;;
43182;SDS011;28802;38.578;-0.066;2022-09-13T14:02:14;13.07;;;2.83;;
43182;SDS011;28802;38.578;-0.066;2022-09-13T14:04:53;10.93;;;2.70;;
43182;SDS011;28802;38.578;-0.066;2022-09-13T14:11:12;10.63;;;2.00;;
43182;SDS011;28802;38.578;-0.066;2022-09-13T14:19:29;15.53;;;3.23;;
43182;SDS011;28802;38.578;-0.066;2022-09-13T14:24:36;11.47;;;2.50;;
43182;SDS011;28802;38.578;-0.066;2022-09-13T14:27:03;11.87;;;2.27;;
43182;SDS011;28802;38.578;-0.066;2022-09-13T14:29:29;15.40;;;2.60;;
43182;SDS011;28802;38.578;-0.066;2022-09-13T14:32:04;14.03;;;2.57;;
43182;SDS011;28802;38.578;-0.066;2022-09-13T14:34:32;13.57;;;2.20;;
43182;SDS011;28802;38.578;-0.066;2022-09-13T14:37:03;15.40;;;2.40;;
43182;SDS011;28802;38.578;-0.066;2022-09-13T14:39:30;16.10;;;2.37;;
43182;SDS011;28802;38.578;-0.066;2022-09-13T14:41:58;17.67;;;2.00;;
43182;SDS011;28802;38.578;-0.066;2022-09-13T14:44:24;14.13;;;2.80;;
43182;SDS011;28802;38.578;-0.066;2022-09-13T14:47:03;17.50;;;2.90;;
43182;SDS011;28802;38.578;-0.066;2022-09-13T14:49:40;11.53;;;2.43;;
43182;SDS011;28802;38.578;-0.066;2022-09-13T14:52:18;14.10;;;2.33;;
43182;SDS011;28802;38.578;-0.066;2022-09-13T14:54:53;18.93;;;2.40;;
43182;SDS011;28802;38.578;-0.066;2022-09-13T14:57:27;23.87;;;2.50;;
43182;SDS011;28802;38.578;-0.066;2022-09-13T15:00:05;15.53;;;1.93;;
43182;SDS011;28802;38.578;-0.066;2022-09-13T15:02:42;16.90;;;2.63;;
43182;SDS011;28802;38.578;-0.066;2022-09-13T15:05:20;13.37;;;3.00;;
43182;SDS011;28802;38.578;-0.066;2022-09-13T15:07:49;11.90;;;2.13;;
43182;SDS011;28802;38.578;-0.066;2022-09-13T15:10:27;17.90;;;2.83;;
43182;SDS011;28802;38.578;-0.066;2022-09-13T15:15:36;17.50;;;2.47;;
43182;SDS011;28802;38.578;-0.066;2022-09-13T15:20:57;19.00;;;3.00;;
43182;SDS011;28802;38.578;-0.066;2022-09-13T15:23:29;18.20;;;3.47;;
43182;SDS011;28802;38.578;-0.066;2022-09-13T15:26:02;10.73;;;2.87;;
43182;SDS011;28802;38.578;-0.066;2022-09-13T15:31:09;17.23;;;2.13;;
43182;SDS011;28802;38.578;-0.066;2022-09-13T15:33:43;17.30;;;2.57;;
43182;SDS011;28802;38.578;-0.066;2022-09-13T15:36:13;10.47;;;2.40;;
43182;SDS011;28802;38.578;-0.066;2022-09-13T15:38:55;11.00;;;2.13;;
43182;SDS011;28802;38.578;-0.066;2022-09-13T15:41:27;13.13;;;3.00;;
43182;SDS011;28802;38.578;-0.066;2022-09-13T15:43:57;11.67;;;2.30;;
43182;SDS011;28802;38.578;-0.066;2022-09-13T15:46:24;13.10;;;2.60;;
43182;SDS011;28802;38.578;-0.066;2022-09-13T15:49:12;18.50;;;1.90;;
43182;SDS011;28802;38.578;-0.066;2022-09-13T15:51:41;22.03;;;2.57;;
43182;SDS011;28802;38.578;-0.066;2022-09-13T15:54:15;21.77;;;3.07;;
43182;SDS011;28802;38.578;-0.066;2022-09-13T15:56:43;14.70;;;1.77;;
43182;SDS011;28802;38.578;-0.066;2022-09-13T15:59:15;17.53;;;2.07;;
43182;SDS011;28802;38.578;-0.066;2022-09-13T16:01:42;10.73;;;2.00;;
43182;SDS011;28802;38.578;-0.066;2022-09-13T16:04:09;14.43;;;2.00;;
43182;SDS011;28802;38.578;-0.066;2022-09-13T16:06:36;20.27;;;2.97;;
43182;SDS011;28802;38.578;-0.066;2022-09-13T16:09:18;14.83;;;2.40;;
43182;SDS011;28802;38.578;-0.066;2022-09-13T16:11:47;27.17;;;3.30;;
43182;SDS011;28802;38.578;-0.066;2022-09-13T16:14:13;17.20;;;3.50;;
43182;SDS011;28802;38.578;-0.066;2022-09-13T16:16:40;13.77;;;2.83;;
43182;SDS011;28802;38.578;-0.066;2022-09-13T16:19:09;23.37;;;3.10;;
43182;SDS011;28802;38.578;-0.066;2022-09-13T16:21:39;17.77;;;3.03;;
43182;SDS011;28802;38.578;-0.066;2022-09-13T16:24:05;18.87;;;2.80;;
43182;SDS011;28802;38.578;-0.066;2022-09-13T16:26:31;15.73;;;2.50;;
43182;SDS011;28802;38.578;-0.066;2022-09-13T16:28:58;16.20;;;2.27;;
43182;SDS011;28802;38.578;-0.066;2022-09-13T16:31:24;16.87;;;3.30;;
43182;SDS011;28802;38.578;-0.066;2022-09-13T16:33:50;27.70;;;2.97;;
43182;SDS011;28802;38.578;-0.066;2022-09-13T16:36:16;19.20;;;2.87;;
43182;SDS011;28802;38.578;-0.066;2022-09-13T16:38:42;18.73;;;2.70;;
43182;SDS011;28802;38.578;-0.066;2022-09-13T16:41:08;16.63;;;2.50;;
43182;SDS011;28802;38.578;-0.066;2022-09-13T16:43:34;14.53;;;2.53;;
43182;SDS011;28802;38.578;-0.066;2022-09-13T16:46:06;23.93;;;2.23;;
43182;SDS011;28802;38.578;-0.066;2022-09-13T16:48:34;19.00;;;1.80;;
43182;SDS011;28802;38.578;-0.066;2022-09-13T16:51:07;17.77;;;1.83;;
43182;SDS011;28802;38.578;-0.066;2022-09-13T16:53:35;22.57;;;2.37;;
43182;SDS011;28802;38.578;-0.066;2022-09-13T16:56:10;23.03;;;5.60;;
43182;SDS011;28802;38.578;-0.066;2022-09-13T16:58:38;16.63;;;3.03;;
43182;SDS011;28802;38.578;-0.066;2022-09-13T17:01:05;31.47;;;3.47;;
43182;SDS011;28802;38.578;-0.066;2022-09-13T17:03:33;16.13;;;2.23;;
43182;SDS011;28802;38.578;-0.066;2022-09-13T17:06:01;16.50;;;2.73;;
43182;SDS011;28802;38.578;-0.066;2022-09-13T17:08:28;13.90;;;2.37;;
43182;SDS011;28802;38.578;-0.066;2022-09-13T17:10:55;10.40;;;2.70;;
43182;SDS011;28802;38.578;-0.066;2022-09-13T17:13:21;21.17;;;3.63;;
43182;SDS011;28802;38.578;-0.066;2022-09-13T17:15:48;17.70;;;2.80;;
43182;SDS011;28802;38.578;-0.066;2022-09-13T17:18:14;18.10;;;2.67;;
43182;SDS011;28802;38.578;-0.066;2022-09-13T17:20:48;19.63;;;2.50;;
43182;SDS011;28802;38.578;-0.066;2022-09-13T17:23:14;14.73;;;2.70;;
43182;SDS011;28802;38.578;-0.066;2022-09-13T17:25:50;12.63;;;2.63;;
43182;SDS011;28802;38.578;-0.066;2022-09-13T17:28:16;12.10;;;1.80;;
43182;SDS011;28802;38.578;-0.066;2022-09-13T17:30:43;15.90;;;2.50;;
43182;SDS011;28802;38.578;-0.066;2022-09-13T17:33:10;26.33;;;2.60;;
43182;SDS011;28802;38.578;-0.066;2022-09-13T17:35:37;16.50;;;2.30;;
43182;SDS011;28802;38.578;-0.066;2022-09-13T17:38:03;16.17;;;3.30;;
43182;SDS011;28802;38.578;-0.066;2022-09-13T17:40:29;17.90;;;2.37;;
43182;SDS011;28802;38.578;-0.066;2022-09-13T17:42:56;17.87;;;2.90;;
43182;SDS011;28802;38.578;-0.066;2022-09-13T17:45:22;12.90;;;2.03;;
43182;SDS011;28802;38.578;-0.066;2022-09-13T17:47:51;17.00;;;2.20;;
43182;SDS011;28802;38.578;-0.066;2022-09-13T17:50:18;18.40;;;2.13;;
43182;SDS011;28802;38.578;-0.066;2022-09-13T17:52:44;10.60;;;2.20;;
43182;SDS011;28802;38.578;-0.066;2022-09-13T17:55:10;13.43;;;2.57;;
43182;SDS011;28802;38.578;-0.066;2022-09-13T17:57:39;13.13;;;2.70;;
43182;SDS011;28802;38.578;-0.066;2022-09-13T18:00:05;15.40;;;2.00;;
43182;SDS011;28802;38.578;-0.066;2022-09-13T18:02:37;21.10;;;2.80;;
43182;SDS011;28802;38.578;-0.066;2022-09-13T18:05:03;16.47;;;3.00;;
43182;SDS011;28802;38.578;-0.066;2022-09-13T18:07:29;16.37;;;2.70;;
43182;SDS011;28802;38.578;-0.066;2022-09-13T18:09:55;17.40;;;2.83;;
43182;SDS011;28802;38.578;-0.066;2022-09-13T18:12:22;14.37;;;2.63;;
43182;SDS011;28802;38.578;-0.066;2022-09-13T18:14:48;15.80;;;2.17;;
43182;SDS011;28802;38.578;-0.066;2022-09-13T18:17:14;11.87;;;2.57;;
43182;SDS011;28802;38.578;-0.066;2022-09-13T18:19:40;12.90;;;2.43;;
43182;SDS011;28802;38.578;-0.066;2022-09-13T18:22:09;16.43;;;2.33;;
43182;SDS011;28802;38.578;-0.066;2022-09-13T18:24:35;17.73;;;2.67;;
43182;SDS011;28802;38.578;-0.066;2022-09-13T18:27:01;15.13;;;2.60;;
43182;SDS011;28802;38.578;-0.066;2022-09-13T18:29:28;27.47;;;3.27;;
43182;SDS011;28802;38.578;-0.066;2022-09-13T18:31:55;22.97;;;2.40;;